Time;durP1;ratioP1;P1;durP2;ratioP2;P2;SDS_P1;SDS_P2;PMS_P1;PMS_P2;Temp;Humidity;BMP_temperature;BMP_pressure;BME280_temperature;BME280_humidity;BME280_pressure;Samples;Min_cycle;Max_cycle;Signal;HPM_P1;HPM_P2
2021/11/14 00:01:05;;;;;;;18.13;13.15;;;8.20;99.90;;;;;;5056524;28;20044;-67
2021/11/14 00:03:32;;;;;;;24.17;13.27;;;8.20;99.90;;;;;;5055913;28;20040;-65
2021/11/14 00:05:58;;;;;;;16.23;11.75;;;8.20;99.90;;;;;;5056538;28;20094;-66
2021/11/14 00:08:23;;;;;;;15.40;11.95;;;8.20;99.90;;;;;;5056562;28;20431;-65
2021/11/14 00:10:53;;;;;;;19.15;12.88;;;8.20;99.90;;;;;;5055595;28;20204;-65
2021/11/14 00:13:20;;;;;;;16.85;12.52;;;8.30;99.90;;;;;;5057835;28;20104;-66
2021/11/14 00:15:45;;;;;;;17.42;11.27;;;8.20;99.90;;;;;;5057126;28;20419;-65
2021/11/14 00:18:12;;;;;;;18.08;11.93;;;8.30;99.90;;;;;;5077699;28;20021;-65
2021/11/14 00:20:38;;;;;;;16.25;11.07;;;8.30;99.90;;;;;;5077255;28;20024;-67
2021/11/14 00:23:05;;;;;;;14.25;10.65;;;8.20;99.90;;;;;;5077783;28;20040;-66
2021/11/14 00:25:31;;;;;;;14.90;11.13;;;8.30;99.90;;;;;;5077211;28;20103;-73
2021/11/14 00:27:57;;;;;;;19.65;12.25;;;8.30;99.90;;;;;;5077460;28;20016;-66
2021/11/14 00:30:23;;;;;;;14.45;10.75;;;8.20;99.90;;;;;;5077510;28;20020;-65
2021/11/14 00:32:52;;;;;;;15.50;11.23;;;8.20;99.90;;;;;;5058904;28;20099;-65
2021/11/14 00:35:19;;;;;;;13.38;10.48;;;8.20;99.90;;;;;;5058721;28;20115;-66
2021/11/14 00:37:45;;;;;;;16.77;11.02;;;8.20;99.90;;;;;;5055875;28;20016;-65
2021/11/14 00:40:21;;;;;;;35.03;12.02;;;8.20;99.90;;;;;;5074367;28;20078;-65
2021/11/14 00:42:47;;;;;;;11.45;9.82;;;8.20;99.90;;;;;;5055759;28;20039;-65
2021/11/14 00:45:13;;;;;;;14.20;10.18;;;8.20;99.90;;;;;;5059755;28;20024;-65
2021/11/14 00:47:40;;;;;;;15.10;9.82;;;8.20;99.90;;;;;;5074075;28;20032;-65
2021/11/14 00:50:10;;;;;;;14.30;11.57;;;8.20;99.90;;;;;;5074450;28;20063;-65
2021/11/14 00:52:38;;;;;;;14.73;10.13;;;8.10;99.90;;;;;;5073677;28;20040;-66
2021/11/14 00:55:05;;;;;;;14.13;11.05;;;8.20;99.90;;;;;;5072934;28;20017;-65
2021/11/14 00:57:31;;;;;;;15.15;11.00;;;8.20;99.90;;;;;;5074276;28;20037;-64
2021/11/14 00:59:56;;;;;;;15.93;11.50;;;8.20;99.90;;;;;;5073456;28;20031;-65
2021/11/14 01:02:22;;;;;;;13.52;10.63;;;8.10;99.90;;;;;;5073619;28;20111;-65
2021/11/14 01:04:48;;;;;;;13.55;11.18;;;8.20;99.90;;;;;;5071195;28;20025;-65
2021/11/14 01:07:14;;;;;;;17.88;12.88;;;8.20;99.90;;;;;;5072034;28;20028;-65
2021/11/14 01:09:40;;;;;;;15.45;11.07;;;8.30;99.90;;;;;;5072556;28;20024;-65
2021/11/14 01:12:06;;;;;;;17.00;11.93;;;8.20;99.90;;;;;;5073810;28;20063;-65
2021/11/14 01:14:32;;;;;;;23.00;13.20;;;8.20;99.90;;;;;;5072229;28;20058;-66
2021/11/14 01:16:58;;;;;;;20.63;13.73;;;8.10;99.90;;;;;;5070769;28;20041;-65
2021/11/14 01:19:23;;;;;;;21.75;14.93;;;8.10;99.90;;;;;;5073176;28;20028;-67
2021/11/14 01:21:49;;;;;;;21.92;14.18;;;8.10;99.90;;;;;;5071503;28;20040;-66
2021/11/14 01:24:16;;;;;;;22.02;15.18;;;8.20;99.90;;;;;;5073409;28;20119;-68
2021/11/14 01:26:42;;;;;;;22.38;14.85;;;8.20;99.90;;;;;;5071454;28;20044;-65
2021/11/14 01:29:08;;;;;;;22.63;13.15;;;8.10;99.90;;;;;;5073384;28;20399;-66
2021/11/14 01:31:34;;;;;;;19.25;13.05;;;8.00;99.90;;;;;;5073352;28;20024;-66
2021/11/14 01:34:00;;;;;;;20.67;12.82;;;8.10;99.90;;;;;;5071785;28;20024;-65
2021/11/14 01:36:31;;;;;;;19.50;13.00;;;8.20;99.90;;;;;;5071842;28;20162;-66
2021/11/14 01:38:57;;;;;;;17.70;12.77;;;8.20;99.90;;;;;;5072648;28;20028;-67
2021/11/14 01:41:23;;;;;;;22.60;14.02;;;8.10;99.90;;;;;;5071867;28;20021;-66
2021/11/14 01:43:50;;;;;;;21.42;13.18;;;8.10;99.90;;;;;;5072106;28;20191;-66
2021/11/14 01:46:17;;;;;;;21.13;12.88;;;8.10;99.90;;;;;;5072931;28;20319;-66
2021/11/14 01:48:43;;;;;;;20.25;12.95;;;8.10;99.90;;;;;;5071508;28;20047;-66
2021/11/14 01:51:10;;;;;;;20.55;14.15;;;8.10;99.90;;;;;;5073112;28;20125;-65
2021/11/14 01:53:38;;;;;;;23.42;15.90;;;8.10;99.90;;;;;;5072100;28;20039;-75
2021/11/14 01:56:07;;;;;;;24.88;14.60;;;8.10;99.90;;;;;;5072674;28;20020;-65
2021/11/14 01:58:33;;;;;;;26.15;15.70;;;8.10;99.90;;;;;;5072594;28;20104;-65
2021/11/14 02:01:17;;;;;;;23.13;14.55;;;8.00;99.90;;;;;;5071819;28;20096;-65
2021/11/14 02:03:48;;;;;;;27.42;16.35;;;8.10;99.90;;;;;;5072087;28;20028;-65
2021/11/14 02:06:15;;;;;;;25.88;15.88;;;8.10;99.90;;;;;;5072760;28;20024;-66
2021/11/14 02:08:43;;;;;;;27.02;15.07;;;8.00;99.90;;;;;;5072136;28;20020;-65
2021/11/14 02:11:14;;;;;;;26.30;16.55;;;8.00;99.90;;;;;;5072564;28;20013;-66
2021/11/14 02:13:40;;;;;;;27.88;17.27;;;8.10;99.90;;;;;;5070786;28;20031;-63
2021/11/14 02:16:06;;;;;;;28.25;16.15;;;8.10;99.90;;;;;;5072264;28;20374;-65
2021/11/14 02:18:32;;;;;;;29.05;16.70;;;8.10;99.90;;;;;;5092237;28;20048;-65
2021/11/14 02:20:57;;;;;;;31.38;17.00;;;8.10;99.90;;;;;;5073901;28;20050;-66
2021/11/14 02:23:25;;;;;;;26.38;16.42;;;8.10;99.90;;;;;;5092805;28;20036;-64
2021/11/14 02:25:52;;;;;;;31.83;17.33;;;8.10;99.90;;;;;;5073452;28;20031;-66
2021/11/14 02:28:20;;;;;;;30.17;16.70;;;8.00;99.90;;;;;;5092223;28;20431;-66
2021/11/14 02:30:48;;;;;;;31.70;16.48;;;8.10;99.90;;;;;;5073622;28;20092;-65
2021/11/14 02:33:14;;;;;;;29.10;15.95;;;8.10;99.90;;;;;;5074254;28;20084;-65
2021/11/14 02:35:43;;;;;;;29.52;17.58;;;8.00;99.90;;;;;;5091716;28;20073;-66
2021/11/14 02:38:10;;;;;;;31.42;17.13;;;8.00;99.90;;;;;;5091970;28;20092;-65
2021/11/14 02:40:37;;;;;;;32.80;16.67;;;8.00;99.90;;;;;;5073917;28;20472;-66
2021/11/14 02:43:03;;;;;;;34.70;17.73;;;8.10;99.90;;;;;;5091169;28;20122;-66
2021/11/14 02:45:29;;;;;;;37.20;17.73;;;8.10;99.90;;;;;;5074008;28;20028;-65
2021/11/14 02:47:56;;;;;;;29.35;15.95;;;8.10;99.90;;;;;;5091537;28;20030;-66
2021/11/14 02:50:22;;;;;;;27.02;15.07;;;8.00;99.90;;;;;;5092128;28;20099;-65
2021/11/14 02:52:48;;;;;;;31.20;16.27;;;8.00;99.90;;;;;;5091200;28;20028;-66
2021/11/14 02:55:17;;;;;;;25.13;15.05;;;8.10;99.90;;;;;;5073849;28;20020;-65
2021/11/14 02:57:43;;;;;;;25.27;14.52;;;8.10;99.90;;;;;;5073149;28;20031;-66
2021/11/14 03:00:14;;;;;;;24.42;13.57;;;8.10;99.90;;;;;;5091339;28;20088;-66
2021/11/14 03:02:40;;;;;;;23.58;13.80;;;8.10;99.90;;;;;;5091531;28;20055;-74
2021/11/14 03:05:13;;;;;;;25.17;14.80;;;8.10;99.90;;;;;;5091599;28;20381;-65
2021/11/14 03:07:39;;;;;;;23.88;13.55;;;8.00;99.90;;;;;;5057784;28;20055;-66
2021/11/14 03:10:07;;;;;;;23.60;13.18;;;8.00;99.90;;;;;;5072000;28;20363;-66
2021/11/14 03:12:33;;;;;;;21.80;12.60;;;8.00;99.90;;;;;;5072484;28;20020;-65
2021/11/14 03:14:59;;;;;;;26.02;12.85;;;8.00;99.90;;;;;;5053291;28;20059;-65
2021/11/14 03:17:26;;;;;;;20.92;12.60;;;8.00;99.90;;;;;;5049764;28;20097;-65
2021/11/14 03:19:52;;;;;;;22.33;12.63;;;8.00;99.90;;;;;;5050868;28;20032;-66
2021/11/14 03:22:18;;;;;;;24.90;14.50;;;8.00;99.90;;;;;;5051377;28;20041;-66
2021/11/14 03:24:44;;;;;;;23.65;12.80;;;8.00;99.90;;;;;;5050725;28;20021;-66
2021/11/14 03:27:10;;;;;;;23.60;12.35;;;8.00;99.90;;;;;;5050002;28;20036;-66
2021/11/14 03:29:36;;;;;;;18.50;11.30;;;8.00;99.90;;;;;;5051458;28;20366;-65
2021/11/14 03:32:03;;;;;;;21.17;12.80;;;8.10;99.90;;;;;;5049365;28;20613;-65
2021/11/14 03:34:29;;;;;;;17.65;10.32;;;8.10;99.90;;;;;;5051304;28;20098;-65
2021/11/14 03:36:54;;;;;;;16.17;11.95;;;8.10;99.90;;;;;;5049453;28;20401;-65
2021/11/14 03:39:20;;;;;;;16.88;10.20;;;8.10;99.90;;;;;;5051398;28;20052;-65
2021/11/14 03:41:45;;;;;;;15.82;10.20;;;8.10;99.90;;;;;;5050785;28;20052;-65
2021/11/14 03:44:12;;;;;;;14.82;10.27;;;8.10;99.90;;;;;;5051537;28;20099;-65
2021/11/14 03:46:38;;;;;;;15.93;10.60;;;8.10;99.90;;;;;;5051162;28;20025;-66
2021/11/14 03:49:05;;;;;;;16.02;10.27;;;8.00;99.90;;;;;;5050570;28;20100;-64
2021/11/14 03:51:32;;;;;;;15.60;10.05;;;8.10;99.90;;;;;;5050009;28;20384;-65
2021/11/14 03:53:59;;;;;;;13.52;9.32;;;8.10;99.90;;;;;;5050554;28;20017;-65
2021/11/14 03:56:26;;;;;;;15.48;9.82;;;8.10;99.90;;;;;;5051299;28;20039;-65
2021/11/14 03:58:51;;;;;;;13.45;9.98;;;8.20;99.90;;;;;;5049156;28;20454;-65
2021/11/14 04:01:21;;;;;;;14.70;9.60;;;8.20;99.90;;;;;;5051212;28;20021;-65
2021/11/14 04:03:50;;;;;;;18.00;10.77;;;8.20;99.90;;;;;;5050397;28;20450;-65
2021/11/14 04:06:16;;;;;;;14.10;10.10;;;8.20;99.90;;;;;;5049837;28;20020;-66
2021/11/14 04:08:41;;;;;;;14.50;9.50;;;8.10;99.90;;;;;;5049810;28;20426;-64
2021/11/14 04:11:07;;;;;;;13.63;9.10;;;8.10;99.90;;;;;;5051563;28;20112;-65
2021/11/14 04:13:34;;;;;;;14.05;8.82;;;8.10;99.90;;;;;;5054625;28;20069;-65
2021/11/14 04:16:03;;;;;;;14.27;8.50;;;8.20;99.90;;;;;;5053722;28;20120;-65
2021/11/14 04:18:29;;;;;;;15.85;8.63;;;8.20;99.90;;;;;;5073475;28;20055;-65
2021/11/14 04:20:55;;;;;;;11.48;8.27;;;8.30;99.90;;;;;;5074261;28;20013;-64
2021/11/14 04:23:21;;;;;;;13.07;8.43;;;8.20;99.90;;;;;;5074663;28;20044;-64
2021/11/14 04:25:49;;;;;;;12.10;8.77;;;8.30;99.90;;;;;;5073905;28;20161;-65
2021/11/14 04:28:15;;;;;;;12.27;8.73;;;8.20;99.90;;;;;;5074655;28;20442;-66
2021/11/14 04:30:43;;;;;;;10.77;7.35;;;8.20;99.90;;;;;;5074577;28;20403;-65
2021/11/14 04:33:09;;;;;;;11.43;8.32;;;8.30;99.90;;;;;;5073631;28;20369;-65
2021/11/14 04:35:36;;;;;;;11.20;7.82;;;8.20;99.90;;;;;;5074327;28;20370;-68
2021/11/14 04:38:02;;;;;;;9.50;7.63;;;8.20;99.90;;;;;;5055910;28;20027;-66
2021/11/14 04:40:32;;;;;;;12.85;8.15;;;8.20;99.90;;;;;;5074461;28;20020;-64
2021/11/14 04:42:58;;;;;;;11.85;7.75;;;8.20;99.90;;;;;;5073480;28;20036;-66
2021/11/14 04:45:24;;;;;;;8.75;6.80;;;8.20;99.90;;;;;;5056488;28;20028;-65
2021/11/14 04:47:49;;;;;;;11.02;8.05;;;8.20;99.90;;;;;;5073322;28;20032;-65
2021/11/14 04:50:17;;;;;;;15.13;8.25;;;8.20;99.90;;;;;;5074231;28;20406;-66
2021/11/14 04:52:43;;;;;;;10.57;7.05;;;8.30;99.90;;;;;;5074556;28;20036;-66
2021/11/14 04:55:09;;;;;;;8.10;6.40;;;8.30;99.90;;;;;;5055540;28;20028;-66
2021/11/14 04:57:35;;;;;;;8.43;6.32;;;8.30;99.90;;;;;;5073983;28;20048;-65
2021/11/14 05:00:02;;;;;;;8.13;6.30;;;8.40;99.90;;;;;;5073232;28;20024;-66
2021/11/14 05:02:28;;;;;;;7.45;6.20;;;8.40;99.90;;;;;;5055618;28;20056;-65
2021/11/14 05:04:54;;;;;;;8.98;6.97;;;8.30;99.90;;;;;;5073195;28;20466;-66
2021/11/14 05:07:19;;;;;;;10.60;6.95;;;8.20;99.90;;;;;;5073959;28;20032;-66
2021/11/14 05:09:45;;;;;;;8.48;6.53;;;8.30;99.90;;;;;;5074291;28;20028;-66
2021/11/14 05:12:10;;;;;;;9.35;6.97;;;8.30;99.90;;;;;;5073303;28;20461;-66
2021/11/14 05:14:36;;;;;;;8.98;6.97;;;8.30;99.90;;;;;;5055654;28;20052;-64
2021/11/14 05:17:02;;;;;;;8.77;7.20;;;8.20;99.90;;;;;;5072841;28;20053;-65
2021/11/14 05:19:27;;;;;;;9.88;7.32;;;8.20;99.90;;;;;;5073733;28;20033;-65
2021/11/14 05:21:53;;;;;;;8.95;7.15;;;8.20;99.90;;;;;;5054281;28;20310;-66
2021/11/14 05:24:19;;;;;;;10.05;7.25;;;8.20;99.90;;;;;;5073328;28;20016;-65
2021/11/14 05:26:46;;;;;;;11.52;8.00;;;8.30;99.90;;;;;;5055242;28;20519;-65
2021/11/14 05:29:11;;;;;;;8.45;7.18;;;8.20;99.90;;;;;;5072861;28;20513;-66
2021/11/14 05:31:37;;;;;;;10.15;7.60;;;8.30;99.90;;;;;;5055401;28;20112;-66
2021/11/14 05:34:03;;;;;;;10.80;7.38;;;8.30;99.90;;;;;;5072758;28;20070;-66
2021/11/14 05:36:28;;;;;;;8.05;6.88;;;8.40;99.90;;;;;;5073378;28;20147;-66
2021/11/14 05:38:55;;;;;;;11.07;7.28;;;8.30;99.90;;;;;;5072536;28;20047;-65
2021/11/14 05:41:20;;;;;;;10.25;7.78;;;8.30;99.90;;;;;;5072829;28;20458;-65
2021/11/14 05:43:46;;;;;;;9.90;7.40;;;8.30;99.90;;;;;;5073080;28;20036;-65
2021/11/14 05:46:13;;;;;;;10.35;7.35;;;8.30;99.90;;;;;;5072176;28;20398;-66
2021/11/14 05:48:38;;;;;;;10.10;7.22;;;8.30;99.90;;;;;;5072812;28;20023;-65
2021/11/14 05:51:05;;;;;;;9.65;7.38;;;8.30;99.90;;;;;;5071996;28;20050;-66
2021/11/14 05:53:30;;;;;;;10.38;7.80;;;8.30;99.90;;;;;;5073108;28;20063;-65
2021/11/14 05:55:56;;;;;;;9.18;7.70;;;8.20;99.90;;;;;;5072231;28;20048;-65
2021/11/14 05:58:30;;;;;;;12.05;8.27;;;8.30;99.90;;;;;;5072580;28;20024;-65
2021/11/14 06:01:09;;;;;;;9.80;7.93;;;8.30;99.90;;;;;;5072245;28;20354;-65
2021/11/14 06:06:07;;;;;;;9.48;6.88;;;8.30;99.90;;;;;;5072111;28;20354;-66
2021/11/14 06:08:34;;;;;;;10.13;7.50;;;8.30;99.90;;;;;;5072492;28;20422;-65
2021/11/14 06:10:59;;;;;;;10.20;8.02;;;8.30;99.90;;;;;;5071655;28;20070;-64
2021/11/14 06:13:27;;;;;;;12.45;8.93;;;8.30;99.90;;;;;;5072248;28;20028;-65
2021/11/14 06:15:53;;;;;;;13.02;9.30;;;8.20;99.90;;;;;;5071771;28;20021;-66
2021/11/14 06:18:20;;;;;;;12.10;8.68;;;8.20;99.90;;;;;;5050770;28;20098;-66
2021/11/14 06:20:46;;;;;;;13.13;9.27;;;8.20;99.90;;;;;;5051069;28;20053;-65
2021/11/14 06:23:15;;;;;;;11.95;9.15;;;8.20;99.90;;;;;;5051459;28;20076;-65
2021/11/14 06:25:41;;;;;;;12.75;9.07;;;8.20;99.90;;;;;;5052231;28;20428;-67
2021/11/14 06:28:08;;;;;;;14.52;9.38;;;8.20;99.90;;;;;;5051533;28;20021;-65
2021/11/14 06:30:34;;;;;;;11.75;9.07;;;8.30;99.90;;;;;;5052014;28;20472;-66
2021/11/14 06:33:00;;;;;;;13.95;9.90;;;8.40;99.90;;;;;;5051137;28;20058;-66
2021/11/14 06:35:26;;;;;;;10.57;8.05;;;8.30;99.90;;;;;;5051621;28;20555;-66
2021/11/14 06:37:52;;;;;;;11.13;8.88;;;8.30;99.90;;;;;;5051890;28;20112;-66
2021/11/14 06:40:17;;;;;;;14.50;10.07;;;8.30;99.90;;;;;;5050091;28;20021;-66
2021/11/14 06:42:43;;;;;;;12.35;9.23;;;8.40;99.90;;;;;;5050898;28;20087;-65
2021/11/14 06:45:10;;;;;;;11.90;9.02;;;8.30;99.90;;;;;;5051497;28;20032;-66
2021/11/14 06:47:36;;;;;;;14.35;9.25;;;8.30;99.90;;;;;;5051480;28;20017;-65
2021/11/14 06:50:04;;;;;;;12.63;9.07;;;8.30;99.90;;;;;;5033260;28;20025;-65
2021/11/14 06:52:30;;;;;;;10.75;7.88;;;8.30;99.90;;;;;;5051783;28;20052;-65
2021/11/14 06:54:56;;;;;;;11.10;8.68;;;8.30;99.90;;;;;;5050749;28;20118;-65
2021/11/14 06:57:22;;;;;;;12.60;8.43;;;8.30;99.90;;;;;;5050459;28;20454;-64
2021/11/14 06:59:49;;;;;;;18.67;10.00;;;8.30;99.90;;;;;;5050209;28;20031;-65
2021/11/14 07:02:15;;;;;;;12.48;8.52;;;8.30;99.90;;;;;;5050855;28;20283;-65
2021/11/14 07:04:41;;;;;;;10.40;8.13;;;8.40;99.90;;;;;;5050407;28;20052;-64
2021/11/14 07:07:07;;;;;;;12.13;8.95;;;8.40;99.90;;;;;;5049421;28;20390;-65
2021/11/14 07:09:33;;;;;;;10.60;7.55;;;8.40;99.90;;;;;;5051103;28;20480;-64
2021/11/14 07:11:59;;;;;;;9.90;7.75;;;8.40;99.90;;;;;;5050544;28;20029;-65
2021/11/14 07:14:25;;;;;;;11.98;8.07;;;8.40;99.90;;;;;;5051739;28;20029;-64
2021/11/14 07:16:52;;;;;;;11.48;8.85;;;8.40;99.90;;;;;;5056583;28;20045;-64
2021/11/14 07:19:18;;;;;;;11.15;9.27;;;8.40;99.90;;;;;;5069890;28;20123;-65
2021/11/14 07:21:44;;;;;;;9.90;8.00;;;8.40;99.90;;;;;;5068356;28;20071;-66
2021/11/14 07:24:11;;;;;;;11.23;8.63;;;8.40;99.90;;;;;;5066428;28;20048;-65
2021/11/14 07:26:36;;;;;;;13.25;8.50;;;8.50;99.90;;;;;;5052773;28;20032;-64
2021/11/14 07:29:03;;;;;;;13.60;9.57;;;8.40;99.90;;;;;;5049493;28;20021;-65
2021/11/14 07:31:28;;;;;;;16.42;9.40;;;8.40;99.90;;;;;;5050034;28;20112;-65
2021/11/14 07:33:54;;;;;;;9.57;7.57;;;8.50;99.90;;;;;;5050064;28;20334;-66
2021/11/14 07:36:20;;;;;;;10.27;8.48;;;8.50;99.90;;;;;;5050485;28;20130;-66
2021/11/14 07:38:47;;;;;;;10.02;7.85;;;8.50;99.90;;;;;;5050023;28;20370;-65
2021/11/14 07:41:13;;;;;;;13.50;8.50;;;8.50;99.90;;;;;;5050689;28;20036;-65
2021/11/14 07:43:38;;;;;;;9.85;8.18;;;8.60;99.90;;;;;;5049984;28;20032;-64
2021/11/14 07:46:04;;;;;;;11.70;8.55;;;8.60;99.90;;;;;;5053006;28;20033;-65
2021/11/14 07:48:30;;;;;;;12.00;7.43;;;8.60;99.90;;;;;;5054063;28;20035;-65
2021/11/14 07:50:57;;;;;;;11.43;8.25;;;8.70;99.90;;;;;;5053869;28;20453;-66
2021/11/14 07:53:23;;;;;;;12.38;8.95;;;8.70;99.90;;;;;;5054930;28;20021;-65
2021/11/14 07:55:50;;;;;;;9.02;7.40;;;8.70;99.90;;;;;;5053668;28;20455;-64
2021/11/14 07:58:15;;;;;;;11.00;8.18;;;8.70;99.90;;;;;;5054405;28;20021;-65
2021/11/14 08:00:41;;;;;;;9.07;7.35;;;8.70;99.90;;;;;;5054746;28;20059;-65
2021/11/14 08:03:10;;;;;;;11.90;7.65;;;8.70;99.90;;;;;;5054215;28;20029;-65
2021/11/14 08:05:36;;;;;;;12.43;7.95;;;8.70;99.90;;;;;;5054764;28;20510;-65
2021/11/14 08:08:02;;;;;;;9.88;7.72;;;8.80;99.90;;;;;;5054126;28;20099;-67
2021/11/14 08:10:29;;;;;;;9.73;7.45;;;8.80;99.90;;;;;;5054887;28;20052;-66
2021/11/14 08:12:54;;;;;;;9.23;7.00;;;8.80;99.90;;;;;;5054771;28;20036;-65
2021/11/14 08:15:21;;;;;;;10.90;7.82;;;8.90;99.90;;;;;;5052795;28;20040;-66
2021/11/14 08:17:47;;;;;;;10.75;7.57;;;8.90;99.90;;;;;;5052799;28;20056;-65
2021/11/14 08:20:13;;;;;;;11.60;7.35;;;8.90;99.90;;;;;;5052697;28;20025;-65
2021/11/14 08:22:40;;;;;;;9.65;8.23;;;8.80;99.90;;;;;;5054517;28;20025;-64
2021/11/14 08:25:07;;;;;;;10.88;7.68;;;8.90;99.90;;;;;;5053624;28;20458;-65
2021/11/14 08:27:33;;;;;;;19.98;8.70;;;8.90;99.90;;;;;;5054300;28;20013;-65
2021/11/14 08:30:00;;;;;;;10.85;8.50;;;8.90;99.90;;;;;;5053094;28;20049;-65
2021/11/14 08:32:27;;;;;;;12.18;9.27;;;8.90;99.90;;;;;;5054353;28;20032;-65
2021/11/14 08:34:53;;;;;;;12.02;8.63;;;9.00;99.90;;;;;;5054032;28;20021;-65
2021/11/14 08:37:19;;;;;;;10.20;8.07;;;9.10;99.90;;;;;;5052590;28;20021;-66
2021/11/14 08:39:46;;;;;;;9.73;7.45;;;9.10;99.90;;;;;;5052603;28;20458;-66
2021/11/14 08:42:11;;;;;;;10.98;7.85;;;9.10;99.90;;;;;;5052338;28;20037;-66
2021/11/14 08:44:37;;;;;;;10.73;8.45;;;9.00;99.90;;;;;;5057055;28;20441;-66
2021/11/14 08:47:03;;;;;;;11.20;8.55;;;9.10;99.90;;;;;;5058989;28;20024;-66
2021/11/14 08:49:29;;;;;;;9.95;7.78;;;9.10;99.90;;;;;;5053825;28;20127;-65
2021/11/14 08:51:55;;;;;;;11.25;8.80;;;9.20;99.90;;;;;;5053960;28;20141;-64
2021/11/14 08:54:22;;;;;;;10.05;8.70;;;9.10;99.90;;;;;;5053131;28;20446;-65
2021/11/14 08:56:47;;;;;;;12.32;8.88;;;9.10;99.90;;;;;;5053174;28;20044;-65
2021/11/14 08:59:13;;;;;;;12.57;8.05;;;9.20;99.90;;;;;;5053052;28;20021;-66
2021/11/14 09:01:40;;;;;;;9.90;8.02;;;9.30;99.90;;;;;;5053687;28;20476;-66
2021/11/14 09:04:07;;;;;;;11.18;8.77;;;9.30;99.90;;;;;;5053080;28;20025;-65
2021/11/14 09:06:34;;;;;;;16.13;9.50;;;9.30;99.90;;;;;;5051923;28;20025;-65
2021/11/14 09:09:00;;;;;;;11.05;8.55;;;9.40;99.90;;;;;;5052219;28;20021;-65
2021/11/14 09:11:26;;;;;;;12.18;9.35;;;9.40;99.90;;;;;;5052866;28;20455;-65
2021/11/14 09:13:52;;;;;;;11.77;9.85;;;9.50;99.90;;;;;;5053872;28;20028;-65
2021/11/14 09:16:18;;;;;;;11.95;8.65;;;9.50;99.90;;;;;;5052910;28;20027;-66
2021/11/14 09:18:45;;;;;;;14.68;9.57;;;9.70;99.90;;;;;;5055398;28;20416;-65
2021/11/14 09:21:12;;;;;;;10.35;8.65;;;9.60;99.90;;;;;;5054900;28;20552;-65
2021/11/14 09:23:38;;;;;;;14.63;8.95;;;9.70;99.90;;;;;;5073405;28;20111;-65
2021/11/14 09:26:04;;;;;;;14.68;9.73;;;9.70;99.90;;;;;;5072258;28;20341;-72
2021/11/14 09:28:30;;;;;;;9.80;8.15;;;9.80;99.90;;;;;;5073486;28;20107;-66
2021/11/14 09:30:55;;;;;;;11.80;9.07;;;9.80;99.90;;;;;;5073318;28;20024;-65
2021/11/14 09:33:27;;;;;;;11.38;9.25;;;9.80;99.90;;;;;;5073254;28;20485;-66
2021/11/14 09:35:53;;;;;;;13.20;9.38;;;9.90;99.90;;;;;;5055448;28;20070;-66
2021/11/14 09:38:19;;;;;;;10.23;8.75;;;9.90;99.90;;;;;;5074844;28;20047;-65
2021/11/14 09:40:45;;;;;;;11.75;9.15;;;9.80;99.90;;;;;;5071288;28;20432;-65
2021/11/14 09:43:12;;;;;;;14.05;10.25;;;9.80;99.90;;;;;;5092140;28;20031;-66
2021/11/14 09:45:39;;;;;;;12.18;9.48;;;9.90;99.90;;;;;;5074655;28;20102;-64
2021/11/14 09:48:06;;;;;;;10.57;8.95;;;10.00;99.90;;;;;;5092291;28;20032;-76
2021/11/14 09:50:32;;;;;;;12.02;9.23;;;10.00;99.90;;;;;;5074779;28;20027;-66
2021/11/14 09:52:58;;;;;;;12.38;9.23;;;10.00;99.90;;;;;;5092360;28;20032;-65
2021/11/14 09:55:27;;;;;;;11.07;9.65;;;10.10;99.90;;;;;;5073751;28;20016;-66
2021/11/14 09:57:53;;;;;;;17.08;8.80;;;10.10;99.90;;;;;;5092488;28;20024;-66
2021/11/14 10:00:20;;;;;;;11.18;9.32;;;10.10;99.90;;;;;;5073156;28;20016;-66
2021/11/14 10:02:47;;;;;;;12.82;9.77;;;10.20;99.90;;;;;;5073993;28;20413;-66
2021/11/14 10:05:15;;;;;;;17.35;9.15;;;10.20;99.90;;;;;;5070957;28;20024;-67
2021/11/14 10:08:00;;;;;;;9.73;8.32;;;10.20;99.90;;;;;;5067387;28;20127;-66
2021/11/14 10:10:30;;;;;;;10.07;8.40;;;10.10;99.90;;;;;;5073020;28;20774;-66
2021/11/14 10:12:57;;;;;;;13.00;10.02;;;10.30;99.90;;;;;;5062370;28;20020;-66
2021/11/14 10:15:26;;;;;;;12.27;9.20;;;10.20;99.90;;;;;;5045724;28;20086;-67
2021/11/14 10:17:55;;;;;;;13.45;8.70;;;10.20;99.90;;;;;;5075431;28;20194;-66
2021/11/14 10:20:27;;;;;;;12.55;9.25;;;10.30;99.90;;;;;;5072204;28;20035;-66
2021/11/14 10:23:00;;;;;;;12.07;9.40;;;10.20;99.90;;;;;;5072318;28;20084;-66
2021/11/14 10:25:27;;;;;;;12.40;10.00;;;10.20;99.90;;;;;;5052264;28;20111;-66
2021/11/14 10:27:56;;;;;;;12.30;8.15;;;10.30;99.90;;;;;;5070588;28;20215;-67
2021/11/14 10:30:24;;;;;;;11.68;8.80;;;10.40;99.90;;;;;;5083881;28;20030;-67
2021/11/14 10:32:54;;;;;;;12.13;9.40;;;10.60;99.90;;;;;;5089864;28;20476;-67
2021/11/14 10:35:20;;;;;;;11.98;9.18;;;10.70;99.90;;;;;;5071068;28;20021;-67
2021/11/14 10:37:46;;;;;;;12.23;8.55;;;10.90;99.90;;;;;;5071526;28;20032;-66
2021/11/14 10:40:21;;;;;;;17.33;9.50;;;11.10;99.90;;;;;;5070566;28;20017;-66
2021/11/14 10:42:53;;;;;;;36.38;8.77;;;11.10;99.90;;;;;;5071520;28;20089;-66
2021/11/14 10:45:19;;;;;;;10.00;8.20;;;11.20;99.90;;;;;;5071055;28;20023;-67
2021/11/14 10:48:00;;;;;;;9.93;8.27;;;11.30;99.90;;;;;;5088253;28;20031;-67
2021/11/14 10:50:31;;;;;;;11.15;9.25;;;11.20;99.90;;;;;;5089493;28;20044;-66
2021/11/14 10:53:04;;;;;;;12.73;9.45;;;11.20;99.90;;;;;;5091767;28;20457;-66
2021/11/14 10:55:33;;;;;;;11.80;8.85;;;11.20;99.90;;;;;;5084464;28;20032;-64
2021/11/14 10:57:59;;;;;;;11.50;9.63;;;11.30;99.90;;;;;;5091452;28;20020;-68
2021/11/14 11:00:27;;;;;;;14.48;9.70;;;11.30;99.90;;;;;;5081630;28;20358;-69
2021/11/14 11:02:54;;;;;;;11.45;9.25;;;11.20;99.90;;;;;;5078791;28;20055;-67
2021/11/14 11:05:23;;;;;;;19.65;9.18;;;11.20;99.90;;;;;;5079737;28;20032;-68
2021/11/14 11:08:02;;;;;;;11.60;8.82;;;11.10;99.90;;;;;;5081108;28;20051;-67
2021/11/14 11:10:37;;;;;;;13.00;8.05;;;11.10;99.90;;;;;;5063390;28;20151;-66
2021/11/14 11:13:08;;;;;;;11.27;7.20;;;11.50;99.90;;;;;;5081318;28;20020;-67
2021/11/14 11:15:44;;;;;;;14.30;8.35;;;12.00;99.90;;;;;;5071676;28;20050;-68
2021/11/14 11:18:13;;;;;;;20.55;8.10;;;11.80;99.90;;;;;;5065856;28;20052;-65
2021/11/14 11:20:39;;;;;;;8.93;7.85;;;12.00;99.90;;;;;;5066650;28;20461;-68
2021/11/14 11:23:07;;;;;;;10.15;8.98;;;12.20;99.90;;;;;;5072499;28;20028;-65
2021/11/14 11:25:38;;;;;;;9.88;8.32;;;11.90;99.90;;;;;;5080682;28;20024;-67
2021/11/14 11:28:07;;;;;;;11.37;8.87;;;11.70;99.90;;;;;;5076943;28;20025;-66
2021/11/14 11:30:42;;;;;;;12.38;8.75;;;11.70;99.90;;;;;;5051101;28;20258;-66
2021/11/14 11:33:08;;;;;;;19.02;9.65;;;11.60;99.90;;;;;;5078637;28;20047;-66
2021/11/14 11:35:35;;;;;;;11.88;10.23;;;11.50;99.90;;;;;;5070087;28;20021;-67
2021/11/14 11:38:02;;;;;;;12.15;9.75;;;11.40;99.90;;;;;;5080784;28;20024;-67
2021/11/14 11:40:27;;;;;;;12.77;9.65;;;11.40;99.90;;;;;;5080549;28;20024;-65
2021/11/14 11:42:55;;;;;;;12.40;10.07;;;11.40;99.90;;;;;;5071574;28;20035;-66
2021/11/14 11:45:33;;;;;;;12.13;9.93;;;11.50;99.90;;;;;;5067230;28;20441;-66
2021/11/14 11:48:03;;;;;;;11.68;9.02;;;11.50;99.90;;;;;;5058492;28;20068;-67
2021/11/14 11:50:31;;;;;;;12.27;10.45;;;11.40;99.90;;;;;;5059580;28;20218;-67
2021/11/14 11:52:57;;;;;;;11.50;9.85;;;11.50;99.90;;;;;;5074605;28;20024;-65
2021/11/14 11:55:27;;;;;;;12.88;10.32;;;11.50;99.90;;;;;;5080971;28;20020;-66
2021/11/14 11:58:06;;;;;;;11.98;9.25;;;11.40;99.90;;;;;;5058260;28;20111;-68
2021/11/14 12:00:32;;;;;;;16.05;8.85;;;11.40;99.90;;;;;;5061735;28;20028;-62
2021/11/14 12:02:58;;;;;;;12.18;9.45;;;12.00;99.90;;;;;;5081113;28;20445;-67
2021/11/14 12:05:25;;;;;;;12.68;9.65;;;11.80;99.90;;;;;;5074826;28;20413;-67
2021/11/14 12:07:53;;;;;;;11.95;9.45;;;11.60;99.90;;;;;;5075568;28;20123;-67
2021/11/14 12:10:26;;;;;;;12.25;9.75;;;11.50;99.90;;;;;;5069247;28;20027;-68
2021/11/14 12:12:57;;;;;;;12.48;10.27;;;11.50;99.90;;;;;;5052115;28;20120;-67
2021/11/14 12:15:43;;;;;;;12.57;9.85;;;11.40;99.90;;;;;;5062209;28;20021;-67
2021/11/14 12:18:13;;;;;;;14.93;10.60;;;11.40;99.90;;;;;;5082824;28;20051;-69
2021/11/14 12:20:50;;;;;;;13.15;10.55;;;11.40;99.90;;;;;;5083983;28;20023;-69
2021/11/14 12:23:27;;;;;;;14.32;10.07;;;11.40;99.90;;;;;;5068758;28;20107;-67
2021/11/14 12:25:55;;;;;;;13.02;9.77;;;11.40;99.90;;;;;;5061312;28;20430;-64
2021/11/14 12:28:32;;;;;;;11.02;9.70;;;11.50;99.90;;;;;;5065908;28;20017;-70
2021/11/14 12:31:11;;;;;;;14.38;9.48;;;11.50;99.90;;;;;;5055673;28;20350;-67
2021/11/14 12:33:44;;;;;;;12.48;9.10;;;11.50;99.90;;;;;;5066326;28;20123;-67
2021/11/14 12:36:32;;;;;;;12.07;9.85;;;11.60;99.90;;;;;;5060530;28;20043;-67
2021/11/14 12:39:31;;;;;;;11.73;8.35;;;11.70;99.90;;;;;;5086986;28;20028;-66
2021/11/14 12:42:03;;;;;;;11.02;6.07;;;11.60;99.90;;;;;;5049379;28;20051;-66
2021/11/14 12:44:35;;;;;;;12.57;8.90;;;12.30;99.90;;;;;;5076281;28;20338;-67
2021/11/14 12:47:13;;;;;;;11.50;9.48;;;12.10;99.90;;;;;;5060428;28;20054;-68